Impacts TAF Board
For situational awareness. Not to be used for flight planning purposes.
IDs:

KMCO - Orlando Intl, FL, US

Issued at 0538 UTC 24 Mar 2019
Updated at 0721 UTC 24 Mar 2019
Potential Impact None Slight Moderate High
Time0653Z 24/08Z 24/09Z 24/10Z 24/11Z 24/12Z 24/13Z 24/14Z 24/15Z 24/16Z 24/17Z 24/18Z 24/19Z 24/20Z>>
Type OBS PRVL PRVL PRVL PRVL PRVL PRVL PRVL PRVL PRVL PRVL PRVL PRVL PRVL
VIS 10 >6 >6 >6 >6 >6 >6 >6 >6 >6 >6 >6 >6 >6
CIG 300 250 250 250 250 250 250 250 250 250 250 250 250 250
Cover OVC BKN BKN BKN BKN BKN BKN BKN BKN BKN BKN BKN BKN BKN
FltCat VFR VFR VFR VFR VFR VFR VFR VFR VFR VFR VFR VFR VFR VFR
WX -- -- -- -- -- -- -- -- -- -- -- -- -- --
WDir 60 50 50 50 50 50 50 90 90 90 90 120 120 120
WSpd 3 3 3 3 3 3 3 8 8 8 8 10 10 10
WGst -- -- -- -- -- -- -- -- -- -- -- -- -- --
Raw TAF
KMCO 240538Z 2406/2512 05003KT P6SM BKN250
  FM241400 09008KT P6SM FEW030 BKN250
  FM241800 12010KT P6SM SCT050 BKN250
  FM250100 12005KT P6SM FEW060 SCT250


Raw METAR
KMCO 240653Z 06003KT 10SM OVC300 15/12 A3024 RMK AO2 SLP237 T01500122
KMCO 240553Z 06003KT 10SM OVC300 16/12 A3025 RMK AO2 SLP241 T01610122 10206 20150 50001
KMCO 240453Z 05003KT 10SM BKN300 16/12 A3025 RMK AO2 SLP243 T01560122 402720100

METAR Board
Radar Display
Forecast Discussion
For situational awareness. Not to be used for flight planning purposes.